Time;durP1;ratioP1;P1;durP2;ratioP2;P2;SDS_P1;SDS_P2;PMS_P1;PMS_P2;Temp;Humidity;BMP_temperature;BMP_pressure;BME280_temperature;BME280_humidity;BME280_pressure;Samples;Min_cycle;Max_cycle;Signal;HPM_P1;HPM_P2
2022/06/14 00:01:51;;;;;;;0.40;0.20;;;14.20;99.90;;;;;;5070467;28;20876;-69
2022/06/14 00:04:17;;;;;;;0.40;0.20;;;14.20;99.90;;;;;;5071440;28;20406;-68
2022/06/14 00:06:42;;;;;;;0.40;0.40;;;14.10;99.90;;;;;;5070994;28;20941;-68
2022/06/14 00:09:08;;;;;;;0.40;0.30;;;14.20;99.90;;;;;;5070333;28;20471;-68
2022/06/14 00:11:37;;;;;;;0.40;0.30;;;14.20;99.90;;;;;;5052968;28;20427;-68
2022/06/14 00:14:06;;;;;;;0.40;0.30;;;14.00;99.90;;;;;;5070520;28;20433;-68
2022/06/14 00:16:33;;;;;;;0.40;0.20;;;14.00;99.90;;;;;;5071032;28;20403;-68
2022/06/14 00:19:01;;;;;;;0.40;0.28;;;13.90;99.90;;;;;;5069893;28;20387;-68
2022/06/14 00:21:27;;;;;;;0.40;0.20;;;13.90;99.90;;;;;;5070481;28;20391;-68
2022/06/14 00:23:53;;;;;;;0.40;0.20;;;13.80;99.90;;;;;;5052278;28;20419;-68
2022/06/14 00:26:19;;;;;;;0.40;0.20;;;13.90;99.90;;;;;;5071139;28;20885;-68
2022/06/14 00:28:45;;;;;;;0.40;0.30;;;13.80;99.90;;;;;;5070723;28;20430;-69
2022/06/14 00:31:23;;;;;;;0.40;0.30;;;13.80;99.90;;;;;;5070191;28;20483;-68
2022/06/14 00:33:48;;;;;;;0.40;0.20;;;13.70;99.90;;;;;;5070329;28;20430;-69
2022/06/14 00:36:33;;;;;;;0.40;0.20;;;13.70;99.90;;;;;;5071076;28;20396;-69
2022/06/14 00:39:02;;;;;;;0.40;0.30;;;13.70;99.90;;;;;;5070277;28;20471;-69
2022/06/14 00:41:39;;;;;;;0.40;0.30;;;13.60;99.90;;;;;;5052926;28;20423;-68
2022/06/14 00:44:10;;;;;;;0.40;0.20;;;13.50;99.90;;;;;;5069322;28;20441;-68
2022/06/14 00:46:43;;;;;;;0.40;0.30;;;13.50;99.90;;;;;;5070597;28;20384;-68
2022/06/14 00:49:22;;;;;;;0.40;0.30;;;13.60;99.90;;;;;;5069847;28;20420;-68
2022/06/14 00:52:02;;;;;;;0.40;0.20;;;13.50;99.90;;;;;;5050245;28;20386;-69
2022/06/14 00:54:34;;;;;;;0.40;0.20;;;13.40;99.90;;;;;;5050860;28;20400;-69
2022/06/14 00:57:06;;;;;;;0.40;0.20;;;13.30;99.90;;;;;;5050122;28;20434;-68
2022/06/14 00:59:41;;;;;;;0.40;0.20;;;13.40;99.90;;;;;;5068240;28;20390;-68
2022/06/14 01:02:14;;;;;;;0.40;0.30;;;13.30;99.90;;;;;;5069914;28;20487;-68
2022/06/14 01:04:41;;;;;;;0.40;0.20;;;13.30;99.90;;;;;;5070617;28;20395;-68
2022/06/14 01:07:35;;;;;;;0.40;0.40;;;13.30;99.90;;;;;;5069802;28;20779;-69
2022/06/14 01:10:36;;;;;;;0.40;0.20;;;13.30;99.90;;;;;;5066218;28;20487;-69
2022/06/14 01:13:04;;;;;;;0.40;0.20;;;13.40;99.90;;;;;;5065205;28;20407;-68
2022/06/14 01:15:33;;;;;;;0.40;0.20;;;13.40;99.90;;;;;;5070539;28;20678;-68
2022/06/14 01:18:11;;;;;;;1.30;0.70;;;13.40;99.90;;;;;;5069303;28;20391;-69
2022/06/14 01:20:37;;;;;;;0.40;0.20;;;13.50;99.90;;;;;;5069974;28;20811;-68
2022/06/14 01:23:05;;;;;;;0.40;0.20;;;13.40;99.90;;;;;;5069628;28;20780;-68
2022/06/14 01:25:35;;;;;;;1.30;0.90;;;13.40;99.90;;;;;;5070029;28;20805;-68
2022/06/14 01:28:02;;;;;;;0.50;0.50;;;13.40;99.90;;;;;;5051592;28;20383;-68
2022/06/14 01:30:34;;;;;;;0.90;0.60;;;13.40;99.90;;;;;;5069230;28;20411;-68
2022/06/14 01:33:05;;;;;;;0.40;0.20;;;13.30;99.90;;;;;;5069787;28;20474;-69
2022/06/14 01:35:35;;;;;;;0.40;0.20;;;13.20;99.90;;;;;;5070181;28;20391;-68
2022/06/14 01:38:04;;;;;;;0.40;0.20;;;13.20;99.90;;;;;;5069101;28;20388;-69
2022/06/14 01:40:55;;;;;;;0.40;0.20;;;13.20;99.90;;;;;;5070507;28;20383;-68
2022/06/14 01:43:32;;;;;;;0.40;0.30;;;13.20;99.90;;;;;;5070175;28;20427;-68
2022/06/14 01:46:22;;;;;;;0.40;0.20;;;13.30;99.90;;;;;;5069421;28;20399;-69
2022/06/14 01:52:42;;;;;;;0.40;0.20;;;13.30;99.90;;;;;;5069027;28;20383;-68
2022/06/14 01:55:27;;;;;;;0.40;0.20;;;13.30;99.90;;;;;;5042216;28;20396;-68
2022/06/14 01:58:17;;;;;;;0.40;0.20;;;13.20;99.90;;;;;;5068976;28;20930;-69
2022/06/14 02:00:48;;;;;;;0.40;0.20;;;13.20;99.90;;;;;;5070038;28;20790;-68
2022/06/14 02:06:39;;;;;;;1.00;0.80;;;13.10;99.90;;;;;;5069197;28;20414;-69
2022/06/14 02:09:14;;;;;;;0.40;0.30;;;13.10;99.90;;;;;;5069053;28;20407;-68
2022/06/14 02:11:39;;;;;;;0.40;0.20;;;13.10;99.90;;;;;;5069639;28;20783;-68
2022/06/14 02:14:17;;;;;;;0.40;0.20;;;13.20;99.90;;;;;;5068873;28;20423;-68
2022/06/14 02:16:46;;;;;;;0.40;0.40;;;13.10;99.90;;;;;;5068657;28;20407;-68
2022/06/14 02:19:22;;;;;;;0.40;0.30;;;13.20;99.90;;;;;;5068560;28;20697;-68
2022/06/14 02:22:01;;;;;;;0.40;0.20;;;13.10;99.90;;;;;;5068007;28;20407;-68
2022/06/14 02:24:35;;;;;;;0.40;0.20;;;13.10;99.90;;;;;;5069778;28;20450;-68
2022/06/14 02:27:13;;;;;;;0.40;0.30;;;13.10;99.90;;;;;;5069030;28;20380;-68
2022/06/14 02:29:51;;;;;;;0.40;0.20;;;13.10;99.90;;;;;;5069883;28;20425;-68
2022/06/14 02:32:38;;;;;;;0.40;0.20;;;13.10;99.90;;;;;;5068620;28;20892;-68
2022/06/14 02:35:19;;;;;;;0.40;0.20;;;13.00;99.90;;;;;;5068849;28;20506;-68
2022/06/14 02:38:09;;;;;;;0.40;0.30;;;13.00;99.90;;;;;;5069932;28;20670;-68
2022/06/14 02:40:50;;;;;;;0.40;0.20;;;13.10;99.90;;;;;;5050804;28;20389;-68
2022/06/14 02:43:40;;;;;;;0.40;0.20;;;13.10;99.90;;;;;;5062321;28;21340;-68
2022/06/14 02:46:31;;;;;;;0.40;0.32;;;13.10;99.90;;;;;;5071483;28;20434;-68
2022/06/14 02:49:20;;;;;;;0.40;0.20;;;13.20;99.90;;;;;;5072664;28;20441;-69
2022/06/14 02:52:04;;;;;;;0.40;0.20;;;13.10;99.90;;;;;;5072502;28;20396;-68
2022/06/14 02:54:34;;;;;;;0.40;0.20;;;13.00;99.90;;;;;;5072556;28;20407;-68
2022/06/14 02:57:14;;;;;;;0.40;0.30;;;13.10;99.90;;;;;;5071918;28;20387;-69
2022/06/14 02:59:44;;;;;;;0.40;0.20;;;13.10;99.90;;;;;;5072903;28;20416;-68
2022/06/14 03:02:18;;;;;;;0.40;0.20;;;12.90;99.90;;;;;;5071774;28;20407;-68
2022/06/14 03:04:56;;;;;;;0.40;0.20;;;13.00;99.90;;;;;;5072757;28;20542;-68
2022/06/14 03:07:31;;;;;;;0.40;0.20;;;13.00;99.90;;;;;;5072331;28;20458;-68
2022/06/14 03:09:57;;;;;;;0.40;0.35;;;12.90;99.90;;;;;;5072201;28;20455;-70
2022/06/14 03:12:54;;;;;;;0.40;0.25;;;13.00;99.90;;;;;;5072310;28;20522;-68
2022/06/14 03:15:44;;;;;;;0.40;0.20;;;12.90;99.90;;;;;;5072017;28;20423;-68
2022/06/14 03:18:21;;;;;;;0.40;0.20;;;12.90;99.90;;;;;;5071303;28;20404;-68
2022/06/14 03:20:50;;;;;;;0.40;0.20;;;12.90;99.90;;;;;;5072438;28;20388;-68
2022/06/14 03:23:36;;;;;;;0.40;0.30;;;12.80;99.90;;;;;;5070988;28;20471;-68
2022/06/14 03:26:18;;;;;;;0.40;0.30;;;12.80;99.90;;;;;;5071541;28;20387;-69
2022/06/14 03:28:47;;;;;;;0.40;0.20;;;12.80;99.90;;;;;;5072527;28;20782;-68
2022/06/14 03:31:21;;;;;;;0.40;0.20;;;12.80;99.90;;;;;;5071261;28;20391;-68
2022/06/14 03:33:55;;;;;;;0.40;0.30;;;12.70;99.90;;;;;;5072385;28;20490;-68
2022/06/14 03:36:21;;;;;;;0.40;0.20;;;12.70;99.90;;;;;;5071934;28;20384;-68
2022/06/14 03:39:02;;;;;;;0.40;0.20;;;12.60;99.90;;;;;;5072302;28;20475;-68
2022/06/14 03:41:32;;;;;;;0.50;0.50;;;12.60;99.90;;;;;;5072136;28;20391;-68
2022/06/14 03:44:01;;;;;;;0.40;0.20;;;12.70;99.90;;;;;;5071557;28;20927;-69
2022/06/14 03:46:30;;;;;;;0.40;0.25;;;12.60;99.90;;;;;;5071700;28;20457;-69
2022/06/14 03:49:07;;;;;;;1.30;0.60;;;12.50;99.90;;;;;;5072163;28;20403;-69
2022/06/14 03:52:08;;;;;;;0.40;0.20;;;12.50;99.90;;;;;;5071630;28;20380;-69
2022/06/14 03:54:58;;;;;;;0.40;0.30;;;12.60;99.90;;;;;;4981977;28;20416;-69
2022/06/14 03:57:39;;;;;;;0.40;0.20;;;12.50;99.90;;;;;;5066313;28;20935;-69
2022/06/14 04:00:26;;;;;;;0.40;0.20;;;12.40;99.90;;;;;;5070916;28;20384;-68
2022/06/14 04:03:00;;;;;;;0.40;0.20;;;12.50;99.90;;;;;;5071431;28;20400;-69
2022/06/14 04:05:32;;;;;;;0.50;0.50;;;12.60;99.90;;;;;;5071450;28;20395;-69
2022/06/14 04:08:12;;;;;;;0.40;0.20;;;12.50;99.90;;;;;;5070643;28;20400;-69
2022/06/14 04:10:53;;;;;;;0.40;0.30;;;12.50;99.90;;;;;;5071735;28;20388;-69
2022/06/14 04:13:50;;;;;;;0.40;0.38;;;12.50;99.90;;;;;;5070701;28;20424;-69
2022/06/14 04:16:47;;;;;;;0.40;0.20;;;12.50;99.90;;;;;;5070688;28;20933;-69
2022/06/14 04:19:18;;;;;;;0.40;0.30;;;12.40;99.90;;;;;;5032865;28;20860;-69
2022/06/14 04:21:59;;;;;;;0.40;0.20;;;12.40;99.90;;;;;;5071329;28;20388;-70
2022/06/14 04:24:41;;;;;;;0.40;0.20;;;12.40;99.90;;;;;;5070732;28;20398;-69
2022/06/14 04:27:22;;;;;;;0.80;0.80;;;12.40;99.90;;;;;;5070395;28;20407;-69
2022/06/14 04:29:48;;;;;;;0.40;0.20;;;12.40;99.90;;;;;;5071365;28;20399;-69
2022/06/14 04:32:26;;;;;;;0.50;0.37;;;12.40;99.90;;;;;;5070414;28;20753;-69
2022/06/14 04:35:20;;;;;;;0.40;0.20;;;12.50;99.90;;;;;;5071169;28;20541;-69
2022/06/14 04:37:54;;;;;;;0.40;0.20;;;12.50;99.90;;;;;;5028535;28;20443;-69
2022/06/14 04:40:28;;;;;;;0.70;0.70;;;12.40;99.90;;;;;;5053208;28;21088;-69
2022/06/14 04:43:01;;;;;;;0.40;0.20;;;12.50;99.90;;;;;;5071297;28;20853;-69
2022/06/14 04:45:54;;;;;;;0.40;0.20;;;12.60;99.90;;;;;;5071168;28;20487;-68
2022/06/14 04:48:35;;;;;;;0.40;0.20;;;12.70;99.90;;;;;;5070452;28;20995;-69
2022/06/14 04:51:08;;;;;;;0.40;0.20;;;12.60;99.90;;;;;;5070400;28;20391;-69
2022/06/14 04:53:46;;;;;;;0.40;0.20;;;12.70;99.90;;;;;;5070493;28;20894;-68
2022/06/14 04:56:20;;;;;;;0.40;0.20;;;12.80;99.90;;;;;;5070555;28;20705;-68
2022/06/14 04:59:21;;;;;;;0.65;0.35;;;12.90;99.90;;;;;;5070908;28;20380;-68
2022/06/14 05:02:02;;;;;;;0.40;0.30;;;12.80;99.90;;;;;;5026089;28;20396;-68
2022/06/14 05:04:36;;;;;;;0.40;0.20;;;13.00;99.90;;;;;;5050064;28;20473;-68
2022/06/14 05:07:41;;;;;;;0.50;0.40;;;13.10;99.90;;;;;;5050803;28;20382;-69
2022/06/14 05:10:15;;;;;;;0.40;0.20;;;13.20;99.90;;;;;;5050142;28;20385;-69
2022/06/14 05:13:06;;;;;;;0.40;0.20;;;13.20;99.90;;;;;;5057370;28;20847;-69
2022/06/14 05:15:57;;;;;;;0.40;0.20;;;13.20;99.90;;;;;;5034041;28;20407;-69
2022/06/14 05:18:29;;;;;;;0.40;0.20;;;13.30;99.90;;;;;;5069980;28;20826;-69
2022/06/14 05:21:13;;;;;;;0.70;0.50;;;13.40;99.90;;;;;;5070993;28;20376;-68
2022/06/14 05:23:45;;;;;;;0.40;0.20;;;13.50;99.90;;;;;;5070231;28;20392;-68
2022/06/14 05:26:33;;;;;;;0.40;0.20;;;13.50;99.90;;;;;;5069706;28;20458;-69
2022/06/14 05:29:26;;;;;;;0.40;0.40;;;13.50;99.90;;;;;;5070662;28;20375;-69
2022/06/14 05:32:04;;;;;;;0.47;0.40;;;13.60;99.90;;;;;;5070483;28;20467;-69
2022/06/14 05:35:01;;;;;;;0.40;0.40;;;13.60;99.90;;;;;;5069734;28;20402;-69
2022/06/14 05:37:48;;;;;;;0.40;0.20;;;13.70;99.90;;;;;;5069709;28;20392;-69
2022/06/14 05:40:22;;;;;;;0.40;0.20;;;13.80;99.90;;;;;;5069515;28;20396;-69
2022/06/14 05:43:31;;;;;;;0.40;0.25;;;13.80;99.90;;;;;;5070270;28;20399;-69
2022/06/14 05:46:10;;;;;;;0.40;0.20;;;14.00;99.90;;;;;;5022441;28;20442;-69
2022/06/14 05:48:52;;;;;;;1.00;1.00;;;14.00;99.90;;;;;;5073386;28;20503;-69
2022/06/14 05:51:26;;;;;;;0.40;0.20;;;14.10;99.90;;;;;;5070410;28;20427;-69
2022/06/14 05:54:03;;;;;;;1.50;0.90;;;14.20;99.90;;;;;;5090592;28;20397;-69
2022/06/14 05:56:34;;;;;;;0.50;0.50;;;14.20;99.90;;;;;;5090207;28;20455;-69
2022/06/14 05:59:03;;;;;;;0.40;0.30;;;14.30;99.90;;;;;;5075561;28;20395;-69
2022/06/14 06:02:02;;;;;;;0.40;0.20;;;14.30;99.90;;;;;;5068101;28;20470;-69
2022/06/14 06:04:40;;;;;;;0.40;0.20;;;14.50;99.90;;;;;;5060729;28;20396;-68
2022/06/14 06:07:11;;;;;;;0.50;0.50;;;14.60;99.90;;;;;;5069993;28;20383;-69
2022/06/14 06:09:45;;;;;;;0.40;0.30;;;14.50;99.90;;;;;;5053059;28;20391;-69
2022/06/14 06:12:33;;;;;;;0.40;0.20;;;14.60;99.90;;;;;;5069298;28;20388;-69
2022/06/14 06:15:20;;;;;;;0.40;0.20;;;14.70;99.90;;;;;;5070067;28;20380;-68
2022/06/14 06:18:06;;;;;;;0.40;0.20;;;14.80;99.90;;;;;;5073933;28;20462;-69
2022/06/14 06:20:40;;;;;;;0.40;0.30;;;15.10;99.90;;;;;;5071337;28;20434;-68
2022/06/14 06:23:20;;;;;;;0.40;0.20;;;15.20;99.90;;;;;;5072235;28;20902;-69
2022/06/14 06:25:49;;;;;;;0.40;0.20;;;15.20;99.90;;;;;;5072951;28;20468;-69
2022/06/14 06:28:29;;;;;;;0.50;0.40;;;15.30;99.90;;;;;;5072853;28;20478;-69
2022/06/14 06:31:16;;;;;;;0.40;0.20;;;15.40;99.90;;;;;;5073878;28;20790;-68
2022/06/14 06:33:46;;;;;;;0.40;0.20;;;15.50;99.90;;;;;;5073581;28;20411;-68
2022/06/14 06:36:43;;;;;;;0.40;0.20;;;15.80;99.90;;;;;;5073015;28;20518;-69
2022/06/14 06:39:39;;;;;;;0.40;0.20;;;16.00;99.90;;;;;;5072608;28;20402;-70
2022/06/14 06:42:14;;;;;;;0.40;0.20;;;16.20;99.90;;;;;;5074045;28;20416;-68
2022/06/14 06:44:39;;;;;;;0.40;0.20;;;16.30;99.90;;;;;;5077051;28;20403;-68
2022/06/14 06:47:20;;;;;;;0.40;0.20;;;16.30;99.90;;;;;;5074331;28;20396;-68
2022/06/14 06:50:04;;;;;;;0.40;0.20;;;16.30;99.90;;;;;;5077363;28;20458;-68
2022/06/14 06:52:40;;;;;;;0.40;0.30;;;16.40;99.90;;;;;;5071813;28;20434;-68
2022/06/14 06:55:41;;;;;;;0.40;0.20;;;16.40;99.90;;;;;;5068855;28;20867;-69
2022/06/14 06:58:14;;;;;;;0.90;0.60;;;16.50;99.90;;;;;;5059129;28;20869;-70
2022/06/14 07:00:40;;;;;;;0.40;0.30;;;16.50;99.90;;;;;;5072369;28;20896;-69
2022/06/14 07:03:42;;;;;;;0.40;0.30;;;16.60;99.90;;;;;;5068632;28;20476;-69
2022/06/14 07:06:24;;;;;;;0.40;0.40;;;16.70;99.90;;;;;;5056015;28;20475;-69
2022/06/14 07:08:56;;;;;;;0.50;0.50;;;16.80;99.90;;;;;;5057048;28;20467;-69
2022/06/14 07:11:28;;;;;;;0.40;0.20;;;16.90;99.90;;;;;;5071674;28;20812;-68
2022/06/14 07:13:59;;;;;;;0.40;0.30;;;16.90;99.90;;;;;;5072875;28;20412;-69
2022/06/14 07:16:34;;;;;;;0.40;0.20;;;16.90;99.90;;;;;;5072587;28;20457;-69
2022/06/14 07:19:09;;;;;;;0.40;0.20;;;17.00;99.90;;;;;;5072372;28;20414;-68
2022/06/14 07:21:41;;;;;;;0.43;0.32;;;17.10;99.90;;;;;;5071946;28;20427;-69
2022/06/14 07:24:37;;;;;;;0.40;0.40;;;16.90;99.90;;;;;;5070290;28;20399;-69
2022/06/14 07:27:11;;;;;;;0.60;0.60;;;17.00;99.90;;;;;;5064175;28;20518;-69
2022/06/14 07:29:43;;;;;;;0.40;0.20;;;16.90;99.90;;;;;;5066204;28;20397;-69
2022/06/14 07:32:24;;;;;;;0.40;0.20;;;17.10;99.90;;;;;;5070486;28;20476;-69
2022/06/14 07:34:51;;;;;;;0.60;0.60;;;17.20;99.90;;;;;;5071639;28;20478;-69
2022/06/14 07:37:28;;;;;;;0.40;0.25;;;17.30;99.90;;;;;;5071528;28;20736;-69
2022/06/14 07:40:19;;;;;;;0.40;0.30;;;17.40;99.90;;;;;;5072043;28;20487;-69
2022/06/14 07:42:58;;;;;;;0.40;0.30;;;17.30;99.90;;;;;;5072531;28;20410;-69
2022/06/14 07:45:45;;;;;;;0.40;0.20;;;17.40;99.90;;;;;;5071607;28;20416;-69
2022/06/14 07:48:35;;;;;;;0.40;0.40;;;17.50;99.90;;;;;;5071079;28;20750;-69
2022/06/14 07:51:19;;;;;;;0.40;0.40;;;17.60;99.90;;;;;;5069365;28;20399;-69
2022/06/14 07:53:55;;;;;;;0.40;0.20;;;17.80;99.90;;;;;;5069919;28;20419;-69
2022/06/14 07:56:29;;;;;;;0.40;0.20;;;17.90;99.90;;;;;;5068548;28;21058;-69
2022/06/14 07:59:19;;;;;;;0.40;0.30;;;17.90;99.90;;;;;;5071383;28;20781;-69
2022/06/14 08:02:03;;;;;;;0.40;0.20;;;18.10;99.90;;;;;;5051793;28;20740;-69
2022/06/14 08:04:44;;;;;;;0.40;0.20;;;18.10;99.90;;;;;;5066644;28;20466;-70
2022/06/14 08:07:13;;;;;;;0.40;0.20;;;18.20;99.90;;;;;;5072122;28;20467;-69
2022/06/14 08:09:44;;;;;;;0.40;0.20;;;18.20;99.90;;;;;;5071880;28;20388;-68
2022/06/14 08:12:20;;;;;;;0.43;0.38;;;18.30;99.90;;;;;;5071596;28;20471;-69
2022/06/14 08:14:57;;;;;;;0.40;0.30;;;18.40;99.90;;;;;;5071503;28;20898;-69
2022/06/14 08:17:35;;;;;;;0.60;0.40;;;18.30;99.90;;;;;;5070879;28;20383;-69
2022/06/14 08:20:24;;;;;;;0.40;0.20;;;18.40;99.90;;;;;;5069927;28;20397;-69
2022/06/14 08:22:55;;;;;;;0.40;0.30;;;18.50;99.90;;;;;;5061333;28;20751;-69
2022/06/14 08:25:28;;;;;;;0.40;0.20;;;18.60;99.90;;;;;;5070469;28;20380;-69
2022/06/14 08:28:15;;;;;;;0.40;0.30;;;18.50;99.90;;;;;;5071496;28;20822;-69
2022/06/14 08:30:55;;;;;;;0.40;0.20;;;18.60;99.90;;;;;;5071288;28;20604;-69
2022/06/14 08:33:38;;;;;;;0.40;0.20;;;18.60;99.90;;;;;;5070803;28;20743;-69
2022/06/14 08:36:16;;;;;;;0.40;0.30;;;18.90;99.90;;;;;;5071533;28;20879;-70
2022/06/14 08:38:55;;;;;;;0.60;0.50;;;18.90;99.90;;;;;;5071174;28;20384;-69
2022/06/14 08:41:58;;;;;;;0.40;0.20;;;19.00;99.90;;;;;;5070610;28;20906;-69
2022/06/14 08:44:46;;;;;;;0.40;0.30;;;19.20;99.90;;;;;;5070445;28;20416;-69
2022/06/14 08:47:36;;;;;;;0.40;0.20;;;19.30;99.90;;;;;;5070991;28;20383;-69
2022/06/14 08:50:21;;;;;;;0.50;0.50;;;19.40;99.90;;;;;;5059605;28;20406;-69
2022/06/14 08:53:27;;;;;;;1.25;0.85;;;19.40;99.90;;;;;;5070977;28;20503;-69
2022/06/14 08:56:14;;;;;;;0.40;0.20;;;19.40;99.90;;;;;;5053085;28;20484;-69
2022/06/14 08:59:01;;;;;;;0.40;0.20;;;19.50;99.90;;;;;;5070518;28;20419;-69
2022/06/14 09:02:04;;;;;;;0.40;0.30;;;19.60;99.90;;;;;;5069796;28;20883;-68
2022/06/14 09:04:58;;;;;;;0.60;0.60;;;19.70;99.90;;;;;;5070145;28;20713;-68
2022/06/14 09:07:23;;;;;;;0.40;0.30;;;19.90;99.90;;;;;;5069755;28;20392;-69
2022/06/14 09:10:24;;;;;;;0.40;0.40;;;19.90;99.90;;;;;;5070289;28;20751;-69
2022/06/14 09:13:11;;;;;;;0.40;0.30;;;20.00;99.90;;;;;;5057921;28;20419;-69
2022/06/14 09:15:55;;;;;;;0.40;0.40;;;20.10;99.90;;;;;;5069544;28;20425;-68
2022/06/14 09:18:51;;;;;;;0.70;0.70;;;20.10;99.90;;;;;;5069902;28;20384;-69
2022/06/14 09:21:40;;;;;;;0.40;0.30;;;20.20;99.90;;;;;;5069908;28;20392;-67
2022/06/14 09:24:11;;;;;;;0.90;0.90;;;20.30;99.90;;;;;;5070282;28;20375;-68
2022/06/14 09:27:04;;;;;;;0.40;0.30;;;20.40;99.90;;;;;;5068719;28;21143;-68
2022/06/14 09:29:41;;;;;;;1.90;0.90;;;20.50;99.90;;;;;;5059626;28;20397;-68
2022/06/14 09:36:02;;;;;;;0.70;0.70;;;20.50;99.90;;;;;;5025561;28;20498;-67
2022/06/14 09:38:27;;;;;;;0.40;0.30;;;20.70;99.60;;;;;;5059614;28;22028;-68
2022/06/14 09:41:30;;;;;;;0.80;0.80;;;20.80;97.80;;;;;;5067903;28;20457;-68
2022/06/14 09:44:20;;;;;;;0.40;0.40;;;20.90;97.10;;;;;;5063078;28;20421;-68
2022/06/14 09:47:21;;;;;;;0.40;0.30;;;20.80;97.50;;;;;;5062580;28;20805;-68
2022/06/14 09:50:19;;;;;;;0.40;0.20;;;20.80;98.60;;;;;;5017830;28;20424;-68
2022/06/14 09:52:59;;;;;;;0.40;0.20;;;21.20;98.50;;;;;;5072621;28;20462;-68
2022/06/14 09:55:34;;;;;;;0.70;0.70;;;21.30;95.30;;;;;;5071809;28;20399;-68
2022/06/14 09:58:24;;;;;;;0.40;0.30;;;21.40;94.80;;;;;;5062031;28;20838;-68
2022/06/14 10:01:02;;;;;;;0.40;0.20;;;21.50;95.20;;;;;;5071776;28;20402;-68
2022/06/14 10:03:48;;;;;;;0.40;0.20;;;21.70;93.80;;;;;;5073261;28;20392;-68
2022/06/14 10:06:41;;;;;;;0.50;0.40;;;21.70;94.40;;;;;;5071193;28;20749;-67
2022/06/14 10:09:25;;;;;;;0.40;0.20;;;21.70;95.20;;;;;;5072522;28;20379;-68
2022/06/14 10:12:05;;;;;;;0.40;0.40;;;21.80;95.60;;;;;;5073203;28;20418;-68
2022/06/14 10:14:43;;;;;;;0.40;0.20;;;22.00;94.10;;;;;;5072539;28;20423;-68
2022/06/14 10:17:37;;;;;;;0.40;0.25;;;22.10;93.80;;;;;;5072761;28;20403;-69
2022/06/14 10:20:27;;;;;;;0.40;0.20;;;22.10;92.70;;;;;;5062890;28;20392;-68
2022/06/14 10:23:21;;;;;;;0.40;0.30;;;22.10;94.00;;;;;;5073753;28;20383;-69
2022/06/14 10:28:49;;;;;;;0.40;0.20;;;22.30;93.20;;;;;;5070523;28;20418;-68
2022/06/14 10:31:24;;;;;;;0.40;0.30;;;22.50;94.20;;;;;;5073860;28;20501;-69
2022/06/14 10:34:21;;;;;;;0.47;0.47;;;22.50;93.50;;;;;;5072671;28;20415;-69
2022/06/14 10:37:20;;;;;;;1.55;1.10;;;22.60;94.00;;;;;;5072497;28;20419;-69
2022/06/14 10:39:58;;;;;;;0.80;0.80;;;22.90;95.80;;;;;;5072491;28;20388;-68
2022/06/14 10:42:28;;;;;;;0.40;0.20;;;22.90;92.60;;;;;;5072462;28;20474;-69
2022/06/14 10:45:15;;;;;;;0.40;0.30;;;22.90;92.80;;;;;;5072129;28;20420;-68
2022/06/14 10:48:02;;;;;;;0.40;0.30;;;23.00;92.40;;;;;;5069398;28;20391;-69
2022/06/14 10:50:37;;;;;;;0.70;0.70;;;23.30;91.90;;;;;;5070902;28;20685;-69
2022/06/14 10:53:21;;;;;;;0.40;0.30;;;23.40;92.10;;;;;;5072029;28;20403;-68
2022/06/14 10:56:05;;;;;;;0.40;0.30;;;23.50;90.40;;;;;;5071030;28;20388;-68
2022/06/14 10:58:30;;;;;;;0.40;0.20;;;23.40;90.20;;;;;;5070891;28;20404;-68
2022/06/14 11:01:19;;;;;;;0.60;0.60;;;23.50;90.40;;;;;;5071926;28;20475;-69
2022/06/14 11:03:51;;;;;;;1.30;0.60;;;23.50;89.00;;;;;;5071313;28;20391;-68
2022/06/14 11:06:39;;;;;;;0.40;0.20;;;23.60;89.40;;;;;;5071715;28;20483;-69
2022/06/14 11:09:29;;;;;;;0.40;0.30;;;23.80;88.90;;;;;;5072253;28;20388;-68
2022/06/14 11:12:01;;;;;;;0.40;0.30;;;23.90;89.10;;;;;;5072080;28;20387;-69
2022/06/14 11:14:55;;;;;;;1.20;1.10;;;23.90;88.60;;;;;;5071024;28;20403;-69
2022/06/14 11:17:56;;;;;;;0.70;0.70;;;24.10;87.70;;;;;;5071868;28;20392;-68
2022/06/14 11:20:35;;;;;;;0.40;0.30;;;24.20;86.60;;;;;;5045652;28;20486;-69
2022/06/14 11:23:39;;;;;;;0.40;0.23;;;24.40;88.00;;;;;;5071705;28;20831;-69
2022/06/14 11:26:31;;;;;;;0.40;0.30;;;24.50;89.30;;;;;;5072060;28;20470;-69
2022/06/14 11:29:19;;;;;;;0.40;0.20;;;24.80;83.90;;;;;;5071566;28;20391;-67
2022/06/14 11:32:03;;;;;;;0.50;0.30;;;24.90;82.80;;;;;;5071092;28;20378;-68
2022/06/14 11:34:38;;;;;;;1.40;1.30;;;25.10;82.00;;;;;;5070770;28;20403;-69
2022/06/14 11:37:19;;;;;;;0.40;0.20;;;25.50;79.40;;;;;;5071502;28;20856;-69
2022/06/14 11:39:50;;;;;;;0.60;0.60;;;25.30;80.00;;;;;;5070791;28;20986;-69
2022/06/14 11:42:30;;;;;;;0.50;0.40;;;26.10;79.00;;;;;;5071058;28;20904;-69
2022/06/14 11:45:13;;;;;;;0.60;0.50;;;27.00;73.10;;;;;;5006777;28;1841908;-69
2022/06/14 11:48:04;;;;;;;0.40;0.30;;;27.30;70.60;;;;;;5071436;28;20388;-70
2022/06/14 11:50:36;;;;;;;0.50;0.30;;;28.30;67.70;;;;;;5071474;28;20427;-68
2022/06/14 11:53:34;;;;;;;0.40;0.20;;;28.60;65.20;;;;;;5072254;28;20416;-67
2022/06/14 11:56:08;;;;;;;0.40;0.20;;;28.70;65.20;;;;;;5072689;28;20384;-68
2022/06/14 11:58:47;;;;;;;1.20;0.70;;;28.20;67.20;;;;;;5071073;28;20462;-69
2022/06/14 12:01:27;;;;;;;0.40;0.30;;;28.30;64.40;;;;;;5072203;28;20414;-67
2022/06/14 12:04:21;;;;;;;0.40;0.20;;;29.80;60.20;;;;;;5071612;28;20410;-67
2022/06/14 12:06:56;;;;;;;0.40;0.30;;;29.00;59.60;;;;;;5071278;28;20611;-69
2022/06/14 12:10:04;;;;;;;0.40;0.30;;;28.40;61.80;;;;;;5072043;28;20376;-69
2022/06/14 12:12:55;;;;;;;0.40;0.30;;;28.80;62.80;;;;;;4988918;28;20476;-70
2022/06/14 12:15:45;;;;;;;0.40;0.20;;;29.40;62.80;;;;;;5033253;28;20486;-69
2022/06/14 12:18:15;;;;;;;0.60;0.50;;;30.00;58.30;;;;;;5071938;28;20387;-69
2022/06/14 12:21:24;;;;;;;0.40;0.20;;;29.60;57.60;;;;;;5070970;28;20380;-70
2022/06/14 12:23:55;;;;;;;0.40;0.30;;;29.80;57.40;;;;;;4991036;28;21053;-69
2022/06/14 12:26:39;;;;;;;0.50;0.40;;;28.30;57.50;;;;;;5071813;28;20441;-67
2022/06/14 12:29:27;;;;;;;1.60;0.40;;;29.10;58.80;;;;;;5071841;28;20383;-69
2022/06/14 12:32:09;;;;;;;0.60;0.40;;;29.80;57.10;;;;;;5070871;28;20840;-69
2022/06/14 12:34:44;;;;;;;0.40;0.30;;;29.60;55.60;;;;;;5070704;28;20392;-70
2022/06/14 12:37:42;;;;;;;0.40;0.20;;;28.90;57.20;;;;;;5071429;28;20380;-69
2022/06/14 12:40:38;;;;;;;0.40;0.30;;;28.50;61.20;;;;;;5071562;28;20407;-69
2022/06/14 12:43:04;;;;;;;0.40;0.30;;;29.10;59.00;;;;;;5071155;28;20483;-69
2022/06/14 12:45:49;;;;;;;0.90;0.90;;;29.70;58.10;;;;;;5070984;28;20507;-70
2022/06/14 12:48:33;;;;;;;0.40;0.22;;;29.10;61.40;;;;;;5071257;28;20388;-69
2022/06/14 12:51:01;;;;;;;0.40;0.22;;;29.40;61.60;;;;;;5071024;28;20380;-69
2022/06/14 12:53:46;;;;;;;0.40;0.30;;;28.90;61.20;;;;;;5071014;28;20403;-69
2022/06/14 12:56:30;;;;;;;0.40;0.20;;;27.80;58.90;;;;;;5071225;28;20952;-66
2022/06/14 12:59:27;;;;;;;0.40;0.20;;;29.10;60.00;;;;;;5070722;28;20415;-69
2022/06/14 13:02:18;;;;;;;0.40;0.30;;;29.30;59.50;;;;;;5068323;28;21268;-69
2022/06/14 13:05:11;;;;;;;0.40;0.20;;;28.90;56.80;;;;;;5070155;28;20384;-70
2022/06/14 13:08:02;;;;;;;0.40;0.30;;;29.80;56.30;;;;;;5070296;28;20380;-69
2022/06/14 13:10:34;;;;;;;0.40;0.30;;;29.50;56.10;;;;;;5071002;28;20380;-69
2022/06/14 13:13:19;;;;;;;0.50;0.30;;;29.10;56.20;;;;;;5070831;28;20461;-69
2022/06/14 13:16:14;;;;;;;0.40;0.20;;;28.70;57.70;;;;;;5070099;28;20427;-69
2022/06/14 13:19:09;;;;;;;0.50;0.40;;;28.60;63.90;;;;;;5069991;28;20376;-68
2022/06/14 13:22:05;;;;;;;0.40;0.20;;;29.00;57.40;;;;;;5069886;28;20390;-67
2022/06/14 13:24:43;;;;;;;0.50;0.40;;;29.40;56.30;;;;;;5070663;28;20384;-69
2022/06/14 13:27:15;;;;;;;0.40;0.20;;;28.40;56.50;;;;;;5070788;28;20387;-67
2022/06/14 13:30:09;;;;;;;0.40;0.20;;;28.40;58.10;;;;;;5069844;28;20399;-68
2022/06/14 13:32:40;;;;;;;0.40;0.30;;;29.40;56.10;;;;;;5069894;28;20415;-69
2022/06/14 13:35:15;;;;;;;0.40;0.25;;;29.50;55.40;;;;;;5070704;28;20469;-67
2022/06/14 13:38:13;;;;;;;0.50;0.50;;;29.50;55.60;;;;;;5069782;28;20383;-67
2022/06/14 13:41:04;;;;;;;0.40;0.20;;;29.10;56.40;;;;;;5031740;28;20799;-69
2022/06/14 13:43:39;;;;;;;0.50;0.40;;;28.60;56.60;;;;;;5033355;28;20407;-68
2022/06/14 13:46:23;;;;;;;0.40;0.20;;;29.00;61.00;;;;;;5070373;28;20982;-69
2022/06/14 13:49:15;;;;;;;0.52;0.43;;;29.70;57.90;;;;;;5069512;28;20443;-68
2022/06/14 13:52:02;;;;;;;0.40;0.20;;;29.80;58.40;;;;;;5069680;28;20764;-68
2022/06/14 13:54:49;;;;;;;0.40;0.30;;;28.80;54.80;;;;;;5070399;28;20411;-68
2022/06/14 13:57:47;;;;;;;0.40;0.30;;;28.60;55.50;;;;;;5070529;28;20474;-68
2022/06/14 14:00:26;;;;;;;0.40;0.20;;;28.60;56.10;;;;;;5067665;28;20849;-68
2022/06/14 14:03:11;;;;;;;0.40;0.20;;;29.10;55.60;;;;;;5068380;28;20505;-68
2022/06/14 14:06:00;;;;;;;0.40;0.30;;;29.20;55.00;;;;;;5074049;28;20395;-70
2022/06/14 14:08:39;;;;;;;0.40;0.20;;;28.70;55.70;;;;;;5062375;28;20400;-68
2022/06/14 14:11:44;;;;;;;1.40;0.90;;;28.70;55.80;;;;;;5083012;28;20388;-68
2022/06/14 14:14:19;;;;;;;0.40;0.20;;;28.70;58.10;;;;;;5056878;28;20416;-69